createdAt,value
2023-05-05T00:01:14.162Z,98.57
2023-05-05T00:03:42.781Z,98.97
2023-05-05T00:06:10.662Z,98.91
2023-05-05T00:08:38.284Z,99.87
2023-05-05T00:11:06.118Z,100.00
2023-05-05T00:13:33.911Z,99.76
2023-05-05T00:16:01.464Z,99.52
2023-05-05T00:18:29.617Z,99.42
2023-05-05T00:20:57.114Z,99.37
2023-05-05T00:23:24.690Z,99.97
2023-05-05T00:25:52.501Z,100.00
2023-05-05T00:28:20.120Z,99.65
2023-05-05T00:30:48.004Z,98.88
2023-05-05T00:33:15.997Z,98.11
2023-05-05T00:35:43.672Z,98.21
2023-05-05T00:38:11.396Z,99.00
2023-05-05T00:40:39.491Z,99.68
2023-05-05T00:43:07.732Z,100.00
2023-05-05T00:45:37.358Z,99.68
2023-05-05T00:48:06.009Z,100.00
2023-05-05T00:50:33.620Z,100.00
2023-05-05T00:53:02.824Z,100.00
2023-05-05T00:55:31.239Z,100.00
2023-05-05T00:58:00.307Z,100.00
2023-05-05T01:00:28.345Z,99.53
2023-05-05T01:02:56.385Z,98.83
2023-05-05T01:05:24.549Z,98.15
2023-05-05T01:08:01.010Z,97.85
2023-05-05T01:10:45.397Z,97.61
2023-05-05T01:13:25.566Z,97.50
2023-05-05T01:16:12.332Z,97.51
2023-05-05T01:19:07.977Z,96.93
2023-05-05T01:21:41.578Z,96.43
2023-05-05T01:24:28.159Z,96.02
2023-05-05T01:27:20.216Z,98.93
2023-05-05T01:30:25.161Z,99.10
2023-05-05T01:32:56.976Z,99.36
2023-05-05T01:35:50.920Z,97.83
2023-05-05T01:38:30.856Z,97.22
2023-05-05T01:41:11.261Z,97.09
2023-05-05T01:43:41.388Z,96.89
2023-05-05T01:46:09.017Z,98.14
2023-05-05T01:48:37.327Z,98.87
2023-05-05T01:51:05.845Z,98.78
2023-05-05T01:53:34.419Z,99.12
2023-05-05T01:56:03.049Z,98.89
2023-05-05T01:58:32.516Z,98.28
2023-05-05T02:01:01.032Z,98.13
2023-05-05T02:03:29.914Z,97.96
2023-05-05T02:05:58.547Z,97.56
2023-05-05T02:08:26.960Z,96.92
2023-05-05T02:10:54.820Z,96.72
2023-05-05T02:13:23.537Z,96.63
2023-05-05T02:15:52.101Z,97.66
2023-05-05T02:18:22.490Z,97.39
2023-05-05T02:20:53.131Z,97.03
2023-05-05T02:23:21.346Z,96.43
2023-05-05T02:25:56.061Z,96.03
2023-05-05T02:28:50.611Z,95.93
2023-05-05T02:31:21.364Z,96.26
2023-05-05T02:33:50.840Z,96.42
2023-05-05T02:36:20.776Z,96.48
2023-05-05T02:39:04.764Z,97.59
2023-05-05T02:41:36.360Z,99.31
2023-05-05T02:44:05.335Z,98.78
2023-05-05T02:46:33.782Z,98.22
2023-05-05T02:49:01.722Z,97.52
2023-05-05T02:51:29.691Z,97.02
2023-05-05T02:53:58.622Z,96.82
2023-05-05T02:56:38.269Z,96.64
2023-05-05T02:59:16.171Z,96.75
2023-05-05T03:02:16.423Z,96.62
2023-05-05T03:04:57.261Z,96.11
2023-05-05T03:07:31.691Z,95.78
2023-05-05T03:10:20.941Z,95.70
2023-05-05T03:12:53.834Z,96.14
2023-05-05T03:15:25.845Z,98.62
2023-05-05T03:17:54.240Z,97.49
2023-05-05T03:20:22.895Z,96.97
2023-05-05T03:22:52.012Z,96.42
2023-05-05T03:25:19.562Z,95.98
2023-05-05T03:27:48.252Z,95.93
2023-05-05T03:30:20.182Z,96.32
2023-05-05T03:32:48.584Z,96.37
2023-05-05T03:35:16.530Z,96.15
2023-05-05T03:37:44.046Z,95.84
2023-05-05T03:40:13.689Z,95.78
2023-05-05T03:42:41.856Z,96.34
2023-05-05T03:45:09.894Z,96.21
2023-05-05T03:47:38.746Z,97.19
2023-05-05T03:50:07.607Z,99.68
2023-05-05T03:52:36.294Z,99.53
2023-05-05T03:55:04.602Z,98.90
2023-05-05T03:57:32.978Z,98.40
2023-05-05T04:00:01.151Z,98.24
2023-05-05T04:02:30.568Z,97.83
2023-05-05T04:04:58.707Z,97.12
2023-05-05T04:07:27.061Z,99.11
2023-05-05T04:09:56.058Z,99.50
2023-05-05T04:12:23.975Z,100.00
2023-05-05T04:14:51.614Z,99.24
2023-05-05T04:17:19.502Z,100.00
2023-05-05T04:19:47.308Z,100.00
2023-05-05T04:22:14.940Z,99.37
2023-05-05T04:24:42.539Z,98.05
2023-05-05T04:27:10.698Z,98.77
2023-05-05T04:29:38.492Z,100.00
2023-05-05T04:32:06.564Z,100.00
2023-05-05T04:34:34.474Z,99.57
2023-05-05T04:37:02.030Z,98.43
2023-05-05T04:39:29.967Z,98.16
2023-05-05T04:41:58.014Z,99.71
2023-05-05T04:44:25.772Z,100.00
2023-05-05T04:46:53.364Z,100.00
2023-05-05T04:49:21.878Z,100.00
2023-05-05T04:51:49.967Z,100.00
2023-05-05T04:54:17.949Z,100.00
2023-05-05T04:56:45.915Z,100.00
2023-05-05T04:59:14.231Z,100.00
2023-05-05T05:01:42.136Z,100.00
2023-05-05T05:04:13.080Z,100.00
2023-05-05T05:06:40.698Z,100.00
2023-05-05T05:09:08.301Z,100.00
2023-05-05T05:11:36.026Z,100.00
2023-05-05T05:14:03.701Z,100.00
2023-05-05T05:16:31.338Z,100.00
2023-05-05T05:19:01.483Z,100.00
2023-05-05T05:21:30.129Z,99.08
2023-05-05T05:23:57.813Z,99.56
2023-05-05T05:26:26.202Z,99.99
2023-05-05T05:28:54.119Z,98.86
2023-05-05T05:31:22.095Z,97.36
2023-05-05T05:33:51.082Z,98.39
2023-05-05T05:36:19.242Z,96.64
2023-05-05T05:38:46.954Z,96.37
2023-05-05T05:41:15.461Z,97.48
2023-05-05T05:43:43.125Z,94.81
2023-05-05T05:46:11.408Z,93.65
2023-05-05T05:48:42.702Z,94.13
2023-05-05T05:51:17.796Z,92.22
2023-05-05T05:54:00.135Z,91.78
2023-05-05T05:56:30.119Z,91.13
2023-05-05T05:58:58.164Z,91.36
2023-05-05T06:01:26.106Z,89.85
2023-05-05T06:03:54.991Z,88.95
2023-05-05T06:06:23.521Z,89.47
2023-05-05T06:08:51.616Z,88.00
2023-05-05T06:11:20.104Z,87.17
2023-05-05T06:13:48.304Z,87.36
2023-05-05T06:16:16.076Z,86.11
2023-05-05T06:18:44.780Z,85.41
2023-05-05T06:21:13.385Z,85.28
2023-05-05T06:23:42.278Z,86.74
2023-05-05T06:26:10.073Z,85.96
2023-05-05T06:28:37.811Z,85.48
2023-05-05T06:31:05.583Z,84.58
2023-05-05T06:33:33.620Z,83.57
2023-05-05T06:36:01.467Z,82.43
2023-05-05T06:38:29.598Z,81.13
2023-05-05T06:40:58.689Z,80.64
2023-05-05T06:43:30.691Z,83.32
2023-05-05T06:46:04.742Z,83.67
2023-05-05T06:48:35.190Z,81.08
2023-05-05T06:51:05.320Z,80.18
2023-05-05T06:53:34.017Z,77.97
2023-05-05T06:56:01.678Z,77.71
2023-05-05T06:58:30.281Z,76.55
2023-05-05T07:00:57.956Z,75.51
2023-05-05T07:03:27.962Z,75.85
2023-05-05T07:05:56.647Z,75.29
2023-05-05T07:08:27.946Z,73.23
2023-05-05T07:10:57.942Z,70.83
2023-05-05T07:13:26.018Z,71.38
2023-05-05T07:15:54.025Z,73.22
2023-05-05T07:18:22.582Z,72.02
2023-05-05T07:20:50.329Z,71.33
2023-05-05T07:23:18.056Z,72.30
2023-05-05T07:25:53.260Z,70.84
2023-05-05T07:28:30.308Z,69.29
2023-05-05T07:31:05.313Z,67.61
2023-05-05T07:33:34.502Z,66.81
2023-05-05T07:36:02.786Z,69.19
2023-05-05T07:38:30.725Z,66.79
2023-05-05T07:40:58.335Z,66.25
2023-05-05T07:43:26.218Z,66.02
2023-05-05T07:45:54.462Z,66.21
2023-05-05T07:48:22.335Z,65.52
2023-05-05T07:50:50.527Z,64.95
2023-05-05T07:53:18.303Z,63.44
2023-05-05T07:55:46.377Z,64.35
2023-05-05T07:58:55.330Z,62.55
2023-05-05T08:01:23.202Z,60.88
2023-05-05T08:03:51.429Z,59.47
2023-05-05T08:06:22.390Z,58.62
2023-05-05T08:08:50.747Z,58.38
2023-05-05T08:11:21.904Z,56.14
2023-05-05T08:13:49.537Z,57.88
2023-05-05T08:16:17.558Z,55.53
2023-05-05T08:18:46.301Z,55.91
2023-05-05T08:21:14.592Z,54.86
2023-05-05T08:23:42.075Z,54.26
2023-05-05T08:26:10.143Z,52.01
2023-05-05T08:28:37.751Z,53.51
2023-05-05T08:31:06.812Z,53.83
2023-05-05T08:33:34.692Z,51.76
2023-05-05T08:36:02.138Z,49.98
2023-05-05T08:38:29.726Z,50.57
2023-05-05T08:40:57.551Z,51.51
2023-05-05T08:43:25.804Z,51.36
2023-05-05T08:45:53.791Z,49.23
2023-05-05T08:48:23.067Z,49.50
2023-05-05T08:51:01.949Z,52.09
2023-05-05T08:53:37.306Z,50.10
2023-05-05T08:56:05.945Z,51.34
2023-05-05T08:58:37.137Z,50.42
2023-05-05T09:01:06.582Z,50.55
2023-05-05T09:03:35.930Z,52.12
2023-05-05T09:06:04.338Z,50.98
2023-05-05T09:08:35.081Z,50.63
2023-05-05T09:11:05.239Z,52.06
2023-05-05T09:13:32.974Z,52.27
2023-05-05T09:16:00.738Z,51.81
2023-05-05T09:18:29.090Z,51.11
2023-05-05T09:20:59.302Z,50.46
2023-05-05T09:23:27.265Z,49.54
2023-05-05T09:26:06.072Z,49.68
2023-05-05T09:28:33.977Z,46.91
2023-05-05T09:31:16.112Z,44.73
2023-05-05T09:33:44.252Z,46.42
2023-05-05T09:36:12.327Z,44.67
2023-05-05T09:38:39.868Z,44.38
2023-05-05T09:41:23.191Z,44.84
2023-05-05T09:45:00.986Z,42.20
2023-05-05T09:47:53.239Z,43.17
2023-05-05T09:50:31.062Z,40.88
2023-05-05T09:53:01.513Z,42.20
2023-05-05T09:55:31.450Z,45.09
2023-05-05T09:58:20.115Z,45.86
2023-05-05T10:00:48.938Z,44.62
2023-05-05T10:03:17.998Z,44.62
2023-05-05T10:05:54.362Z,46.81
2023-05-05T10:08:25.946Z,47.54
2023-05-05T10:10:54.298Z,45.04
2023-05-05T10:13:24.039Z,43.39
2023-05-05T10:15:54.015Z,43.27
2023-05-05T10:18:27.208Z,42.51
2023-05-05T10:21:03.115Z,42.37
2023-05-05T10:23:38.880Z,44.79
2023-05-05T10:26:07.877Z,45.96
2023-05-05T10:28:50.922Z,47.04
2023-05-05T10:31:26.505Z,45.09
2023-05-05T10:34:01.222Z,44.29
2023-05-05T10:36:29.988Z,44.25
2023-05-05T10:38:58.613Z,44.04
2023-05-05T10:41:29.285Z,45.99
2023-05-05T10:44:00.430Z,47.05
2023-05-05T10:46:29.744Z,48.56
2023-05-05T10:49:03.434Z,46.28
2023-05-05T10:51:49.299Z,46.22
2023-05-05T10:54:54.281Z,49.66
2023-05-05T10:57:25.148Z,46.76
2023-05-05T10:59:53.106Z,45.48
2023-05-05T11:02:28.856Z,46.07
2023-05-05T11:05:23.853Z,46.84
2023-05-05T11:10:57.750Z,46.09
2023-05-05T11:13:26.836Z,46.11
2023-05-05T11:15:56.291Z,43.36
2023-05-05T11:18:59.887Z,44.81
2023-05-05T11:22:01.124Z,41.60
2023-05-05T11:24:31.501Z,40.04
2023-05-05T11:27:05.028Z,40.24
2023-05-05T11:30:09.063Z,44.94
2023-05-05T11:32:37.338Z,44.90
2023-05-05T11:35:06.335Z,44.18
2023-05-05T11:37:34.542Z,46.21
2023-05-05T11:40:22.147Z,46.44
2023-05-05T11:42:49.875Z,46.56
2023-05-05T11:45:22.896Z,45.90
2023-05-05T11:47:51.863Z,46.20
2023-05-05T11:50:21.778Z,46.84
2023-05-05T11:52:49.569Z,46.13
2023-05-05T11:55:20.731Z,46.70
2023-05-05T11:57:48.821Z,47.31
2023-05-05T12:00:17.131Z,48.00
2023-05-05T12:02:46.168Z,47.86
2023-05-05T12:05:19.419Z,46.33
2023-05-05T12:07:47.935Z,47.21
2023-05-05T12:10:22.795Z,47.34
2023-05-05T12:12:52.533Z,46.44
